createdAt,value
2017-03-20T00:00:18.248Z,996.97
2017-03-20T00:02:03.452Z,996.95
2017-03-20T00:02:25.405Z,996.92
2017-03-20T00:03:18.434Z,997.02
2017-03-20T00:03:40.411Z,996.92
2017-03-20T00:04:09.735Z,997.01
2017-03-20T00:04:31.818Z,997.07
2017-03-20T00:04:53.662Z,997.05
2017-03-20T00:05:23.165Z,997.00
2017-03-20T00:05:49.691Z,996.94
2017-03-20T00:06:19.587Z,996.94
2017-03-20T00:06:50.413Z,997.01
2017-03-20T00:07:17.129Z,996.98
2017-03-20T00:07:39.260Z,996.99
2017-03-20T00:08:03.919Z,997.00
2017-03-20T00:08:26.146Z,997.01
2017-03-20T00:08:48.693Z,996.97
2017-03-20T00:09:11.434Z,997.00
2017-03-20T00:09:38.597Z,997.00
2017-03-20T00:10:04.939Z,996.99
2017-03-20T00:10:31.947Z,996.96
2017-03-20T00:10:58.913Z,996.94
2017-03-20T00:11:25.555Z,997.00
2017-03-20T00:11:47.452Z,997.04
2017-03-20T00:12:38.921Z,997.02
2017-03-20T00:13:08.547Z,997.00
2017-03-20T00:13:33.780Z,997.13
2017-03-20T00:14:01.038Z,997.07
2017-03-20T00:14:25.957Z,997.01
2017-03-20T00:15:24.476Z,996.97
2017-03-20T00:15:48.976Z,996.99
2017-03-20T00:16:15.526Z,996.96
2017-03-20T00:16:37.490Z,996.96
2017-03-20T00:16:59.280Z,997.01
2017-03-20T00:17:48.419Z,996.98
2017-03-20T00:18:10.278Z,997.02
2017-03-20T00:18:36.780Z,996.99
2017-03-20T00:18:59.153Z,997.02
2017-03-20T00:19:21.188Z,997.05
2017-03-20T00:19:43.085Z,996.99
2017-03-20T00:20:08.324Z,996.99
2017-03-20T00:20:33.656Z,997.03
2017-03-20T00:20:56.210Z,996.97
2017-03-20T00:21:18.137Z,997.13
2017-03-20T00:21:43.952Z,997.04
2017-03-20T00:22:44.600Z,996.90
2017-03-20T00:23:11.219Z,996.88
2017-03-20T00:23:38.144Z,996.94
2017-03-20T00:24:45.770Z,996.89
2017-03-20T00:25:17.034Z,996.84
2017-03-20T00:25:38.795Z,996.85
2017-03-20T00:26:13.257Z,996.77
2017-03-20T00:26:34.957Z,996.83
2017-03-20T00:26:57.015Z,996.73
2017-03-20T00:27:26.799Z,996.67
2017-03-20T00:27:53.335Z,996.70
2017-03-20T00:28:20.049Z,996.69
2017-03-20T00:28:47.844Z,996.68
2017-03-20T00:29:10.022Z,996.75
2017-03-20T00:29:47.588Z,996.70
2017-03-20T00:30:09.690Z,996.78
2017-03-20T00:30:38.251Z,996.69
2017-03-20T00:31:06.136Z,996.63
2017-03-20T00:31:30.442Z,996.68
2017-03-20T00:31:54.824Z,996.73
2017-03-20T00:32:21.386Z,996.74
2017-03-20T00:32:43.197Z,996.72
2017-03-20T00:33:07.824Z,996.65
2017-03-20T00:33:34.471Z,996.71
2017-03-20T00:33:56.191Z,996.64
2017-03-20T00:34:18.224Z,996.58
2017-03-20T00:35:09.520Z,996.65
2017-03-20T00:35:36.876Z,996.65
2017-03-20T00:35:59.070Z,996.69
2017-03-20T00:36:24.015Z,996.62
2017-03-20T00:36:45.714Z,996.59
2017-03-20T00:37:15.606Z,996.63
2017-03-20T00:37:42.230Z,996.59
2017-03-20T00:38:52.551Z,996.54
2017-03-20T00:39:14.270Z,996.64
2017-03-20T00:39:35.977Z,996.63
2017-03-20T00:39:57.697Z,996.62
2017-03-20T00:40:19.483Z,996.62
2017-03-20T00:40:41.203Z,996.57
2017-03-20T00:41:02.917Z,996.57
2017-03-20T00:41:24.646Z,996.57
2017-03-20T00:42:17.622Z,996.59
2017-03-20T00:42:44.106Z,996.63
2017-03-20T00:43:05.823Z,996.64
2017-03-20T00:43:27.564Z,996.62
2017-03-20T00:43:49.303Z,996.53
2017-03-20T00:44:10.991Z,996.52
2017-03-20T00:44:32.702Z,996.60
2017-03-20T00:44:59.167Z,996.64
2017-03-20T00:45:20.899Z,996.62
2017-03-20T00:45:42.632Z,996.60
2017-03-20T00:46:49.940Z,996.55
2017-03-20T00:47:38.125Z,996.56
2017-03-20T00:47:59.817Z,996.56
2017-03-20T00:48:26.321Z,996.62
2017-03-20T00:48:48.017Z,996.64
2017-03-20T00:49:09.728Z,996.59
2017-03-20T00:49:31.428Z,996.51
2017-03-20T00:49:53.251Z,996.56
2017-03-20T00:50:15.065Z,996.55
2017-03-20T00:51:08.006Z,996.50
2017-03-20T00:51:29.703Z,996.57
2017-03-20T00:51:51.440Z,996.46
2017-03-20T00:52:13.129Z,996.50
2017-03-20T00:52:34.914Z,996.56
2017-03-20T00:52:56.625Z,996.49
2017-03-20T00:53:18.357Z,996.52
2017-03-20T00:53:40.064Z,996.43
2017-03-20T00:54:01.754Z,996.49
2017-03-20T00:54:25.888Z,996.49
2017-03-20T00:54:47.596Z,996.48
2017-03-20T00:55:09.342Z,996.54
2017-03-20T00:55:31.059Z,996.55
2017-03-20T00:55:52.779Z,996.48
2017-03-20T00:56:14.519Z,996.56
2017-03-20T00:56:36.274Z,996.51
2017-03-20T00:56:58.035Z,996.48
2017-03-20T00:57:19.792Z,996.47
2017-03-20T00:57:41.550Z,996.51
2017-03-20T00:58:03.247Z,996.52
2017-03-20T00:58:24.939Z,996.45
2017-03-20T00:58:46.647Z,996.52
2017-03-20T00:59:08.399Z,996.49
2017-03-20T00:59:30.171Z,996.40
2017-03-20T00:59:56.655Z,996.48
2017-03-20T01:00:18.419Z,996.44
2017-03-20T01:00:40.129Z,996.48
2017-03-20T01:01:01.830Z,996.43
2017-03-20T01:01:23.575Z,996.47
2017-03-20T01:01:45.347Z,996.43
2017-03-20T01:02:07.063Z,996.45
2017-03-20T01:02:28.798Z,996.41
2017-03-20T01:02:50.519Z,996.44
2017-03-20T01:03:12.263Z,996.44
2017-03-20T01:03:33.988Z,996.40
2017-03-20T01:03:55.731Z,996.47
2017-03-20T01:04:17.510Z,996.52
2017-03-20T01:04:39.245Z,996.55
2017-03-20T01:05:37.536Z,996.44
2017-03-20T01:05:59.272Z,996.40
2017-03-20T01:06:20.978Z,996.37
2017-03-20T01:06:42.686Z,996.43
2017-03-20T01:07:04.388Z,996.47
2017-03-20T01:07:26.106Z,996.47
2017-03-20T01:07:47.830Z,996.46
2017-03-20T01:08:09.577Z,996.45
2017-03-20T01:08:31.299Z,996.47
2017-03-20T01:08:52.989Z,996.51
2017-03-20T01:09:14.717Z,996.46
2017-03-20T01:09:36.400Z,996.48
2017-03-20T01:09:58.095Z,996.43
2017-03-20T01:10:19.853Z,996.43
2017-03-20T01:10:41.575Z,996.39
2017-03-20T01:11:03.284Z,996.46
2017-03-20T01:11:24.998Z,996.49
2017-03-20T01:11:46.705Z,996.47
2017-03-20T01:12:08.432Z,996.43
2017-03-20T01:12:30.153Z,996.44
2017-03-20T01:12:51.914Z,996.42
2017-03-20T01:13:13.626Z,996.45
2017-03-20T01:13:35.345Z,996.42
2017-03-20T01:13:57.084Z,996.41
2017-03-20T01:14:18.830Z,996.44
2017-03-20T01:14:50.069Z,996.39
2017-03-20T01:15:11.910Z,996.38
2017-03-20T01:15:38.425Z,996.37
2017-03-20T01:16:00.168Z,996.33
2017-03-20T01:16:26.688Z,996.49
2017-03-20T01:16:48.409Z,996.41
2017-03-20T01:17:14.898Z,996.38
2017-03-20T01:17:36.673Z,996.44
2017-03-20T01:17:58.397Z,996.54
2017-03-20T01:18:20.112Z,996.49
2017-03-20T01:18:41.809Z,996.51
2017-03-20T01:19:03.531Z,996.46
2017-03-20T01:19:25.269Z,996.52
2017-03-20T01:20:44.733Z,996.41
2017-03-20T01:21:11.262Z,996.50
2017-03-20T01:21:32.985Z,996.48
2017-03-20T01:21:59.518Z,996.48
2017-03-20T01:22:21.230Z,996.44
2017-03-20T01:22:47.719Z,996.42
2017-03-20T01:23:09.446Z,996.48
2017-03-20T01:23:35.928Z,996.54
2017-03-20T01:23:57.674Z,996.53
2017-03-20T01:24:19.424Z,996.51
2017-03-20T01:25:12.450Z,996.49
2017-03-20T01:26:10.762Z,996.56
2017-03-20T01:26:32.482Z,996.59
2017-03-20T01:26:54.185Z,996.47
2017-03-20T01:27:15.881Z,996.52
2017-03-20T01:27:37.579Z,996.59
2017-03-20T01:27:59.275Z,996.52
2017-03-20T01:28:52.298Z,996.56
2017-03-20T01:29:55.406Z,996.46
2017-03-20T01:30:17.172Z,996.53
2017-03-20T01:30:38.874Z,996.54
2017-03-20T01:31:05.373Z,996.63
2017-03-20T01:31:27.100Z,996.62
2017-03-20T01:32:25.451Z,996.49
2017-03-20T01:32:47.206Z,996.54
2017-03-20T01:33:08.944Z,996.57
2017-03-20T01:33:35.429Z,996.57
2017-03-20T01:33:57.156Z,996.50
2017-03-20T01:34:18.886Z,996.49
2017-03-20T01:34:45.399Z,996.43
2017-03-20T01:35:07.124Z,996.51
2017-03-20T01:36:00.109Z,996.61
2017-03-20T01:36:21.838Z,996.65
2017-03-20T01:36:48.326Z,996.59
2017-03-20T01:37:10.068Z,996.61
2017-03-20T01:37:31.771Z,996.57
2017-03-20T01:37:58.257Z,996.60
2017-03-20T01:38:22.676Z,996.67
2017-03-20T01:39:25.216Z,996.58
2017-03-20T01:40:18.219Z,996.65
2017-03-20T01:40:39.975Z,996.67
2017-03-20T01:41:01.681Z,996.54
2017-03-20T01:41:23.379Z,996.58
2017-03-20T01:42:30.717Z,996.61
2017-03-20T01:42:52.436Z,996.57
2017-03-20T01:43:59.760Z,996.51
2017-03-20T01:44:52.810Z,996.68
2017-03-20T01:45:14.538Z,996.52
2017-03-20T01:45:36.242Z,996.52
2017-03-20T01:46:38.737Z,996.51
2017-03-20T01:47:00.434Z,996.57
2017-03-20T01:47:26.925Z,996.56
2017-03-20T01:47:48.623Z,996.55
2017-03-20T01:48:10.317Z,996.55
2017-03-20T01:48:32.015Z,996.45
2017-03-20T01:48:53.744Z,996.51
2017-03-20T01:49:15.548Z,996.64
2017-03-20T01:49:42.032Z,996.58
2017-03-20T01:50:08.533Z,996.54
2017-03-20T01:51:01.628Z,996.46
2017-03-20T01:51:28.193Z,996.51
2017-03-20T01:51:49.931Z,996.46
2017-03-20T01:52:57.254Z,996.40
2017-03-20T01:53:45.460Z,996.40
2017-03-20T01:54:07.202Z,996.43
2017-03-20T01:54:28.928Z,996.44
2017-03-20T01:54:50.636Z,996.47
2017-03-20T01:55:12.379Z,996.45
2017-03-20T01:55:34.085Z,996.51
2017-03-20T01:55:55.816Z,996.47
2017-03-20T01:56:17.550Z,996.42
2017-03-20T01:56:39.259Z,996.46
2017-03-20T01:57:00.994Z,996.45
2017-03-20T01:57:22.819Z,996.46
2017-03-20T01:57:44.526Z,996.49
2017-03-20T01:58:06.275Z,996.41
2017-03-20T01:58:28.014Z,996.45
2017-03-20T01:58:49.735Z,996.46
2017-03-20T01:59:11.457Z,996.46
2017-03-20T01:59:33.159Z,996.47
2017-03-20T01:59:54.904Z,996.47
2017-03-20T02:00:16.708Z,996.41
2017-03-20T02:00:38.444Z,996.38
2017-03-20T02:01:00.165Z,996.44
2017-03-20T02:01:21.904Z,996.36
2017-03-20T02:01:43.620Z,996.36
2017-03-20T02:02:05.345Z,996.34
2017-03-20T02:02:27.254Z,996.44
2017-03-20T02:02:48.953Z,996.54
2017-03-20T02:03:10.711Z,996.48
2017-03-20T02:03:32.475Z,996.39
2017-03-20T02:03:54.234Z,996.42
2017-03-20T02:04:15.975Z,996.47
2017-03-20T02:04:37.763Z,996.34
2017-03-20T02:04:59.498Z,996.38
2017-03-20T02:05:21.218Z,996.45
2017-03-20T02:05:43.031Z,996.37
2017-03-20T02:06:04.802Z,996.41
2017-03-20T02:06:26.559Z,996.42
2017-03-20T02:06:48.328Z,996.46
2017-03-20T02:07:10.044Z,996.37
2017-03-20T02:07:31.776Z,996.44
2017-03-20T02:07:53.561Z,996.44
2017-03-20T02:08:15.292Z,996.40
2017-03-20T02:08:36.983Z,996.52
2017-03-20T02:08:58.681Z,996.54
2017-03-20T02:09:20.399Z,996.41
2017-03-20T02:09:42.151Z,996.42
2017-03-20T02:10:03.910Z,996.41
2017-03-20T02:10:25.632Z,996.38
2017-03-20T02:10:47.336Z,996.43
2017-03-20T02:11:50.407Z,996.45
2017-03-20T02:12:12.142Z,996.47
2017-03-20T02:12:33.880Z,996.53
2017-03-20T02:12:55.589Z,996.45
2017-03-20T02:13:17.303Z,996.44
2017-03-20T02:13:39.035Z,996.46
2017-03-20T02:14:00.780Z,996.41
2017-03-20T02:14:22.515Z,996.46
2017-03-20T02:14:44.270Z,996.43
2017-03-20T02:15:06.030Z,996.45
2017-03-20T02:15:27.744Z,996.46
2017-03-20T02:15:49.481Z,996.43
2017-03-20T02:16:11.234Z,996.46
2017-03-20T02:16:32.972Z,996.56
2017-03-20T02:16:54.715Z,996.46
2017-03-20T02:17:16.435Z,996.43
2017-03-20T02:18:23.727Z,996.42
2017-03-20T02:18:45.447Z,996.33
2017-03-20T02:19:47.958Z,996.37
2017-03-20T02:20:09.657Z,996.38
2017-03-20T02:20:31.409Z,996.45
2017-03-20T02:20:53.137Z,996.49
2017-03-20T02:21:14.844Z,996.41
2017-03-20T02:21:36.579Z,996.38
2017-03-20T02:21:58.294Z,996.35
2017-03-20T02:22:20.034Z,996.43
2017-03-20T02:22:41.777Z,996.41
2017-03-20T02:23:03.526Z,996.44
2017-03-20T02:23:25.331Z,996.50
2017-03-20T02:23:47.019Z,996.36
2017-03-20T02:24:08.732Z,996.40
2017-03-20T02:24:30.444Z,996.49
2017-03-20T02:24:52.178Z,996.45
2017-03-20T02:25:14.151Z,996.49
2017-03-20T02:25:35.889Z,996.43
2017-03-20T02:25:57.650Z,996.39
2017-03-20T02:26:19.381Z,996.37
2017-03-20T02:26:41.126Z,996.39
2017-03-20T02:27:43.697Z,996.42
2017-03-20T02:28:05.424Z,996.43
2017-03-20T02:28:27.183Z,996.52
2017-03-20T02:28:48.902Z,996.41
2017-03-20T02:29:10.622Z,996.45
2017-03-20T02:29:32.366Z,996.51
2017-03-20T02:29:54.080Z,996.47
2017-03-20T02:30:15.790Z,996.48
2017-03-20T02:30:37.488Z,996.38
2017-03-20T02:30:59.212Z,996.45
2017-03-20T02:31:20.960Z,996.52
2017-03-20T02:31:42.713Z,996.47
2017-03-20T02:32:04.467Z,996.55
2017-03-20T02:32:26.216Z,996.48
2017-03-20T02:33:29.291Z,996.50
2017-03-20T02:33:52.036Z,996.44
2017-03-20T02:34:13.729Z,996.44
2017-03-20T02:35:06.733Z,996.51
2017-03-20T02:35:28.574Z,996.50
2017-03-20T02:35:50.299Z,996.52
2017-03-20T02:36:12.044Z,996.43
2017-03-20T02:36:33.863Z,996.41
2017-03-20T02:36:55.629Z,996.47
2017-03-20T02:37:17.377Z,996.50
2017-03-20T02:37:39.127Z,996.44
2017-03-20T02:38:00.930Z,996.51
2017-03-20T02:38:22.645Z,996.51
2017-03-20T02:38:45.417Z,996.52
2017-03-20T02:39:38.442Z,996.53
2017-03-20T02:40:00.150Z,996.56
2017-03-20T02:40:21.909Z,996.47
2017-03-20T02:40:43.637Z,996.54
2017-03-20T02:41:05.362Z,996.59
2017-03-20T02:41:27.128Z,996.45
2017-03-20T02:41:48.901Z,996.45
2017-03-20T02:42:10.631Z,996.52
2017-03-20T02:42:32.365Z,996.52
2017-03-20T02:42:54.107Z,996.58
2017-03-20T02:43:15.983Z,996.53
2017-03-20T02:43:37.696Z,996.54
2017-03-20T02:43:59.448Z,996.54
2017-03-20T02:44:21.162Z,996.47
2017-03-20T02:44:42.925Z,996.50
2017-03-20T02:45:04.690Z,996.52
2017-03-20T02:45:26.429Z,996.51
2017-03-20T02:45:48.141Z,996.50
2017-03-20T02:46:09.897Z,996.52
2017-03-20T02:46:31.615Z,996.49
2017-03-20T02:46:53.359Z,996.43
2017-03-20T02:47:15.081Z,996.47
2017-03-20T02:48:22.395Z,996.47
2017-03-20T02:48:44.155Z,996.49
2017-03-20T02:49:42.480Z,996.45
2017-03-20T02:50:04.219Z,996.46
2017-03-20T02:50:25.963Z,996.40
2017-03-20T02:50:47.745Z,996.44
2017-03-20T02:51:09.482Z,996.49
2017-03-20T02:51:31.253Z,996.58
2017-03-20T02:51:53.990Z,996.50
2017-03-20T02:52:15.724Z,996.52
2017-03-20T02:52:37.477Z,996.46
2017-03-20T02:52:59.208Z,996.44
2017-03-20T02:53:20.919Z,996.44
2017-03-20T02:53:42.638Z,996.52
2017-03-20T02:54:04.378Z,996.57
2017-03-20T02:54:26.106Z,996.53
2017-03-20T02:54:47.864Z,996.46
2017-03-20T02:55:09.566Z,996.33
2017-03-20T02:55:31.293Z,996.44
2017-03-20T02:55:53.026Z,996.44
2017-03-20T02:56:14.777Z,996.48
2017-03-20T02:56:36.523Z,996.45
2017-03-20T02:56:58.284Z,996.39
2017-03-20T02:57:20.018Z,996.49
2017-03-20T02:57:41.750Z,996.49
2017-03-20T02:58:03.492Z,996.51
2017-03-20T02:58:25.220Z,996.46
2017-03-20T02:58:46.956Z,996.44
2017-03-20T02:59:08.686Z,996.49
2017-03-20T02:59:30.420Z,996.39
2017-03-20T02:59:52.145Z,996.43
2017-03-20T03:00:13.881Z,996.41
2017-03-20T03:00:35.652Z,996.52
2017-03-20T03:00:57.456Z,996.59
2017-03-20T03:01:19.188Z,996.52
2017-03-20T03:01:40.957Z,996.55
2017-03-20T03:02:02.715Z,996.51
2017-03-20T03:02:24.418Z,996.39
2017-03-20T03:03:17.444Z,996.52
2017-03-20T03:03:39.344Z,996.50
2017-03-20T03:04:32.324Z,996.48
2017-03-20T03:04:54.069Z,996.43
2017-03-20T03:05:47.128Z,996.43
2017-03-20T03:06:08.938Z,996.47
2017-03-20T03:06:35.496Z,996.49
2017-03-20T03:06:57.248Z,996.52
2017-03-20T03:07:23.781Z,996.52
2017-03-20T03:07:45.559Z,996.44
2017-03-20T03:08:07.280Z,996.51
2017-03-20T03:09:00.276Z,996.52
2017-03-20T03:09:22.154Z,996.40
2017-03-20T03:09:43.889Z,996.41
2017-03-20T03:10:05.609Z,996.45
2017-03-20T03:10:27.344Z,996.51
2017-03-20T03:10:53.830Z,996.50
2017-03-20T03:11:52.184Z,996.50
2017-03-20T03:12:13.882Z,996.50
2017-03-20T03:12:40.375Z,996.50
2017-03-20T03:13:02.114Z,996.48
2017-03-20T03:13:28.599Z,996.55
2017-03-20T03:13:50.305Z,996.48
2017-03-20T03:14:53.597Z,996.39
2017-03-20T03:15:20.111Z,996.52
2017-03-20T03:15:46.640Z,996.48
2017-03-20T03:16:08.389Z,996.49
2017-03-20T03:17:01.425Z,996.42
2017-03-20T03:17:54.454Z,996.45
2017-03-20T03:18:47.460Z,996.43
2017-03-20T03:19:40.602Z,996.43
2017-03-20T03:20:42.980Z,996.41
2017-03-20T03:21:04.702Z,996.48
2017-03-20T03:21:26.447Z,996.42
2017-03-20T03:21:48.190Z,996.40
2017-03-20T03:22:09.906Z,996.51
2017-03-20T03:22:31.683Z,996.42
2017-03-20T03:22:53.431Z,996.47
2017-03-20T03:23:15.157Z,996.41
2017-03-20T03:23:36.888Z,996.36
2017-03-20T03:24:35.316Z,996.39
2017-03-20T03:25:28.371Z,996.40
2017-03-20T03:26:30.908Z,996.34
2017-03-20T03:26:52.607Z,996.33
2017-03-20T03:27:14.311Z,996.35
2017-03-20T03:28:12.657Z,996.40
2017-03-20T03:29:05.648Z,996.35
2017-03-20T03:29:32.167Z,996.34
2017-03-20T03:29:53.853Z,996.35
2017-03-20T03:30:20.349Z,996.34
2017-03-20T03:30:42.093Z,996.40
2017-03-20T03:31:08.591Z,996.37
2017-03-20T03:31:30.302Z,996.34
2017-03-20T03:31:56.839Z,996.38
2017-03-20T03:32:18.548Z,996.30
2017-03-20T03:32:45.039Z,996.38
2017-03-20T03:33:11.663Z,996.38
2017-03-20T03:33:33.431Z,996.29
2017-03-20T03:34:26.389Z,996.26
2017-03-20T03:34:53.138Z,996.28
2017-03-20T03:35:14.841Z,996.23
2017-03-20T03:36:17.369Z,996.40
2017-03-20T03:36:40.080Z,996.39
2017-03-20T03:37:01.810Z,996.27
2017-03-20T03:37:28.299Z,996.29
2017-03-20T03:37:50.004Z,996.29
2017-03-20T03:38:42.993Z,996.28
2017-03-20T03:39:09.483Z,996.21
2017-03-20T03:39:31.324Z,996.33
2017-03-20T03:39:53.025Z,996.35
2017-03-20T03:41:26.810Z,996.44
2017-03-20T03:42:29.754Z,996.37
2017-03-20T03:44:03.565Z,996.27
2017-03-20T03:44:56.570Z,996.42
2017-03-20T03:45:23.059Z,996.47
2017-03-20T03:45:44.772Z,996.38
2017-03-20T03:46:06.500Z,996.40
2017-03-20T03:46:33.056Z,996.35
2017-03-20T03:46:54.950Z,996.48
2017-03-20T03:47:16.691Z,996.43
2017-03-20T03:48:09.867Z,996.42
2017-03-20T03:48:36.362Z,996.44
2017-03-20T03:48:58.087Z,996.54
2017-03-20T03:50:00.612Z,996.52
2017-03-20T03:50:22.332Z,996.46
2017-03-20T03:50:44.053Z,996.50
2017-03-20T03:51:05.764Z,996.53
2017-03-20T03:51:32.248Z,996.61
2017-03-20T03:52:34.798Z,996.46
2017-03-20T03:53:37.813Z,996.47
2017-03-20T03:54:31.369Z,996.43
2017-03-20T03:55:24.385Z,996.52
2017-03-20T03:56:27.476Z,996.42
2017-03-20T03:56:49.232Z,996.45
2017-03-20T03:57:10.959Z,996.50
2017-03-20T03:57:32.683Z,996.49
2017-03-20T03:57:54.411Z,996.52
2017-03-20T03:58:20.897Z,996.58
2017-03-20T03:58:42.633Z,996.58
2017-03-20T03:59:04.393Z,996.54
2017-03-20T03:59:31.145Z,996.47
2017-03-20T03:59:52.895Z,996.46
2017-03-20T04:00:19.403Z,996.43
2017-03-20T04:00:41.092Z,996.42
2017-03-20T04:01:02.811Z,996.42
2017-03-20T04:01:55.846Z,996.45
2017-03-20T04:02:48.851Z,996.57
2017-03-20T04:03:41.840Z,996.56
2017-03-20T04:04:03.588Z,996.67
2017-03-20T04:04:25.307Z,996.56
2017-03-20T04:04:47.058Z,996.53
2017-03-20T04:05:49.571Z,996.53
2017-03-20T04:06:16.060Z,996.56
2017-03-20T04:06:37.768Z,996.53
2017-03-20T04:06:59.466Z,996.64
2017-03-20T04:07:25.978Z,996.50
2017-03-20T04:07:47.711Z,996.53
2017-03-20T04:08:14.187Z,996.64
2017-03-20T04:08:35.928Z,996.60
2017-03-20T04:09:43.231Z,996.54
2017-03-20T04:10:04.946Z,996.59
2017-03-20T04:10:26.676Z,996.59
2017-03-20T04:10:48.393Z,996.56
2017-03-20T04:11:10.092Z,996.67
2017-03-20T04:11:36.570Z,996.62
2017-03-20T04:11:58.306Z,996.50
2017-03-20T04:12:24.806Z,996.50
2017-03-20T04:12:46.540Z,996.59
2017-03-20T04:13:13.073Z,996.64
2017-03-20T04:13:34.780Z,996.62
2017-03-20T04:13:56.482Z,996.67
2017-03-20T04:14:23.106Z,996.59
2017-03-20T04:14:44.799Z,996.66
2017-03-20T04:15:11.399Z,996.75
2017-03-20T04:15:33.336Z,996.70
2017-03-20T04:15:59.945Z,996.64
2017-03-20T04:16:21.712Z,996.69
2017-03-20T04:17:14.826Z,996.70
2017-03-20T04:17:41.363Z,996.72
2017-03-20T04:18:03.145Z,996.72
2017-03-20T04:18:24.902Z,996.67
2017-03-20T04:18:46.667Z,996.73
2017-03-20T04:19:08.465Z,996.67
2017-03-20T04:20:11.006Z,996.81
2017-03-20T04:20:32.738Z,996.77
2017-03-20T04:20:54.614Z,996.72
2017-03-20T04:21:16.892Z,996.77
2017-03-20T04:21:38.656Z,996.77
2017-03-20T04:22:00.410Z,996.76
2017-03-20T04:22:22.332Z,996.77
2017-03-20T04:22:44.091Z,996.78
2017-03-20T04:23:05.840Z,996.69
2017-03-20T04:23:27.629Z,996.67
2017-03-20T04:23:49.629Z,996.74
2017-03-20T04:24:11.383Z,996.77
2017-03-20T04:24:33.172Z,996.78
2017-03-20T04:25:26.388Z,996.75
2017-03-20T04:26:22.508Z,996.77
2017-03-20T04:27:24.921Z,996.81
2017-03-20T04:27:46.809Z,996.79
2017-03-20T04:28:08.574Z,996.84
2017-03-20T04:28:30.375Z,996.82
2017-03-20T04:28:52.177Z,996.83
2017-03-20T04:29:50.989Z,996.81
2017-03-20T04:30:15.339Z,996.81
2017-03-20T04:30:37.071Z,996.83
2017-03-20T04:30:58.840Z,996.86
2017-03-20T04:31:20.591Z,996.69
2017-03-20T04:31:42.355Z,996.78
2017-03-20T04:32:04.072Z,996.83
2017-03-20T04:32:25.803Z,996.81
2017-03-20T04:32:47.730Z,996.80
2017-03-20T04:33:09.444Z,996.85
2017-03-20T04:33:31.254Z,996.90
2017-03-20T04:33:53.103Z,996.76
2017-03-20T04:34:14.872Z,996.86
2017-03-20T04:34:36.611Z,996.82
2017-03-20T04:34:58.410Z,996.82
2017-03-20T04:35:20.174Z,996.72
2017-03-20T04:35:41.985Z,996.83
2017-03-20T04:36:03.750Z,996.88
2017-03-20T04:36:25.562Z,996.82
2017-03-20T04:36:47.345Z,996.77
2017-03-20T04:37:09.236Z,996.85
2017-03-20T04:37:31.023Z,996.83
2017-03-20T04:37:52.823Z,996.89
2017-03-20T04:38:14.615Z,996.84
2017-03-20T04:38:36.394Z,996.78
2017-03-20T04:38:58.136Z,996.74
2017-03-20T04:39:19.870Z,996.74
2017-03-20T04:39:41.646Z,996.76
2017-03-20T04:40:03.520Z,996.82
2017-03-20T04:40:25.362Z,996.75
2017-03-20T04:40:49.673Z,996.78
2017-03-20T04:41:11.447Z,996.71
2017-03-20T04:41:33.221Z,996.73
2017-03-20T04:41:54.952Z,996.67
2017-03-20T04:42:21.507Z,996.68
2017-03-20T04:43:24.651Z,996.91
2017-03-20T04:43:46.473Z,996.71
2017-03-20T04:44:12.974Z,996.71
2017-03-20T04:44:34.762Z,996.75
2017-03-20T04:45:01.267Z,996.67
2017-03-20T04:45:23.057Z,996.66
2017-03-20T04:45:49.713Z,996.63
2017-03-20T04:46:11.530Z,996.70
2017-03-20T04:46:38.133Z,996.77
2017-03-20T04:46:59.911Z,996.76
2017-03-20T04:47:26.404Z,996.67
2017-03-20T04:48:28.933Z,996.71
2017-03-20T04:48:50.829Z,996.70
2017-03-20T04:49:12.736Z,996.72
2017-03-20T04:49:34.703Z,996.64
2017-03-20T04:49:56.477Z,996.76
2017-03-20T04:50:18.351Z,996.74
2017-03-20T04:50:40.148Z,996.75
2017-03-20T04:51:01.887Z,996.78
2017-03-20T04:51:23.636Z,996.71
2017-03-20T04:51:45.434Z,996.68
2017-03-20T04:52:07.388Z,996.73
2017-03-20T04:52:29.177Z,996.84
2017-03-20T04:52:50.977Z,996.89
2017-03-20T04:53:12.780Z,996.81
2017-03-20T04:53:34.849Z,996.72
2017-03-20T04:53:56.559Z,996.75
2017-03-20T04:54:18.369Z,996.80
2017-03-20T04:55:16.315Z,996.80
2017-03-20T04:55:38.126Z,996.81
2017-03-20T04:56:04.806Z,996.90
2017-03-20T04:56:26.607Z,996.88
2017-03-20T04:56:48.393Z,996.82
2017-03-20T04:57:15.036Z,996.84
2017-03-20T04:57:36.880Z,996.80
2017-03-20T04:58:03.498Z,996.81
2017-03-20T04:58:27.987Z,996.80
2017-03-20T04:58:54.586Z,996.77
2017-03-20T04:59:16.360Z,996.74
2017-03-20T04:59:42.918Z,996.75
2017-03-20T05:00:04.705Z,996.77
2017-03-20T05:00:31.270Z,996.87
2017-03-20T05:00:53.019Z,996.86
2017-03-20T05:01:19.581Z,996.91
2017-03-20T05:01:46.108Z,996.96
2017-03-20T05:02:07.888Z,996.84
2017-03-20T05:02:29.667Z,996.81
2017-03-20T05:02:56.265Z,996.88
2017-03-20T05:03:18.332Z,996.84
2017-03-20T05:03:44.916Z,996.83
2017-03-20T05:04:11.512Z,996.95
2017-03-20T05:04:38.171Z,996.97
2017-03-20T05:04:59.935Z,996.88
2017-03-20T05:06:32.882Z,996.88
2017-03-20T05:07:31.236Z,996.87
2017-03-20T05:07:53.035Z,996.85
2017-03-20T05:08:14.832Z,996.84
2017-03-20T05:08:36.592Z,996.91
2017-03-20T05:08:58.480Z,996.93
2017-03-20T05:09:20.397Z,996.78
2017-03-20T05:09:42.148Z,996.88
2017-03-20T05:10:03.969Z,996.88
2017-03-20T05:11:11.625Z,996.83
2017-03-20T05:11:33.400Z,996.79
2017-03-20T05:11:55.239Z,996.82
2017-03-20T05:12:16.984Z,996.81
2017-03-20T05:12:38.763Z,996.83
2017-03-20T05:13:00.531Z,996.75
2017-03-20T05:13:25.242Z,996.79
2017-03-20T05:13:47.001Z,996.76
2017-03-20T05:14:11.088Z,996.77
2017-03-20T05:14:32.809Z,996.84
2017-03-20T05:14:54.598Z,996.82
2017-03-20T05:15:16.358Z,996.78
2017-03-20T05:15:38.142Z,996.87
2017-03-20T05:16:00.012Z,996.82
2017-03-20T05:16:24.776Z,996.80
2017-03-20T05:18:08.792Z,996.78
2017-03-20T05:18:30.511Z,996.77
2017-03-20T05:20:06.056Z,996.74
2017-03-20T05:21:08.623Z,996.77
2017-03-20T05:21:30.612Z,996.77
2017-03-20T05:21:52.518Z,996.72
2017-03-20T05:22:14.288Z,996.70
2017-03-20T05:22:35.998Z,996.78
2017-03-20T05:22:57.739Z,996.75
2017-03-20T05:23:19.475Z,996.70
2017-03-20T05:23:41.254Z,996.76
2017-03-20T05:24:03.091Z,996.73
2017-03-20T05:24:24.823Z,996.75
2017-03-20T05:24:46.560Z,996.76
2017-03-20T05:25:08.280Z,996.75
2017-03-20T05:25:30.207Z,996.72
2017-03-20T05:25:51.941Z,996.68
2017-03-20T05:26:14.741Z,996.71
2017-03-20T05:26:37.625Z,996.69
2017-03-20T05:27:30.919Z,996.72
2017-03-20T05:27:52.871Z,996.70
2017-03-20T05:28:14.647Z,996.70
2017-03-20T05:28:36.475Z,996.77
2017-03-20T05:28:58.372Z,996.65
2017-03-20T05:29:20.142Z,996.83
2017-03-20T05:29:42.007Z,996.68
2017-03-20T05:30:03.846Z,996.65
2017-03-20T05:30:25.609Z,996.70
2017-03-20T05:30:47.476Z,996.67
2017-03-20T05:31:09.269Z,996.66
2017-03-20T05:31:30.976Z,996.60
2017-03-20T05:31:52.959Z,996.73
2017-03-20T05:32:14.719Z,996.65
2017-03-20T05:32:36.513Z,996.64
2017-03-20T05:32:58.326Z,996.67
2017-03-20T05:33:20.089Z,996.76
2017-03-20T05:33:41.880Z,996.64
2017-03-20T05:34:03.709Z,996.66
2017-03-20T05:34:25.609Z,996.68
2017-03-20T05:34:49.926Z,996.55
2017-03-20T05:35:11.742Z,996.59
2017-03-20T05:35:33.589Z,996.60
2017-03-20T05:35:55.504Z,996.72
2017-03-20T05:36:17.448Z,996.62
2017-03-20T05:36:39.205Z,996.68
2017-03-20T05:37:00.949Z,996.80
2017-03-20T05:37:22.935Z,996.71
2017-03-20T05:37:44.652Z,996.65
2017-03-20T05:38:06.619Z,996.67
2017-03-20T05:38:59.767Z,996.74
2017-03-20T05:39:21.908Z,996.69
2017-03-20T05:39:43.670Z,996.74
2017-03-20T05:40:05.516Z,996.80
2017-03-20T05:40:27.212Z,996.82
2017-03-20T05:40:48.949Z,996.80
2017-03-20T05:41:10.793Z,996.91